GLD1760 SJRG-SSBN
Flight info
| Callsign | GLD1760 |
|---|---|
| Flight time | 1h 10m |
| Altitude | 2500 |
| Route | DCT 3122S05158W DCT 3023S05107W DCT |
| Aircraft | P28A/L-SDFGIRY/S |
Departure
| Time | 2026-04-28 20:07 |
|---|---|
| Airport | Rio Grande Regional Airport (SJRG) |
Arrival
| Time | 2026-04-28 21:17 |
|---|---|
| Airport | Belém Novo Airport (SSBN) |
| Time | Latitude | Longitude | Altitude | Speed | Heading |
|---|---|---|---|---|---|
| 2026-04-28 19:51 | -32.08233 | -52.16332 | 27 ft | 0 kts | 150° |
| 2026-04-28 20:01 | -32.08235 | -52.16332 | 27 ft | 3 kts | 174° |
| 2026-04-28 20:01 | -32.08215 | -52.16331 | 28 ft | 10 kts | 29° |
| 2026-04-28 20:01 | -32.08154 | -52.16369 | 31 ft | 11 kts | 315° |
| 2026-04-28 20:02 | -32.08106 | -52.16426 | 33 ft | 2 kts | 315° |
| 2026-04-28 20:02 | -32.08105 | -52.16426 | 33 ft | 0 kts | 315° |
| 2026-04-28 20:03 | -32.08089 | -52.16446 | 33 ft | 6 kts | 315° |
| 2026-04-28 20:03 | -32.08125 | -52.16512 | 32 ft | 16 kts | 224° |
| 2026-04-28 20:04 | -32.08225 | -52.16627 | 29 ft | 21 kts | 224° |
| 2026-04-28 20:04 | -32.08327 | -52.16744 | 29 ft | 22 kts | 224° |
| 2026-04-28 20:04 | -32.08430 | -52.16863 | 27 ft | 18 kts | 224° |
| 2026-04-28 20:04 | -32.08522 | -52.16967 | 29 ft | 21 kts | 224° |
| 2026-04-28 20:05 | -32.08615 | -52.17074 | 30 ft | 19 kts | 224° |
| 2026-04-28 20:05 | -32.08690 | -52.17160 | 32 ft | 13 kts | 224° |
| 2026-04-28 20:05 | -32.08734 | -52.17210 | 33 ft | 13 kts | 224° |
| 2026-04-28 20:05 | -32.08781 | -52.17274 | 32 ft | 7 kts | 153° |
| 2026-04-28 20:06 | -32.08767 | -52.17249 | 32 ft | 0 kts | 44° |
| 2026-04-28 20:06 | -32.08766 | -52.17248 | 32 ft | 0 kts | 45° |
| 2026-04-28 20:06 | -32.08676 | -52.17143 | 32 ft | 50 kts | 44° |
| 2026-04-28 20:06 | -32.08335 | -52.16749 | 143 ft | 78 kts | 43° |
| 2026-04-28 20:07 | -32.07848 | -52.16421 | 359 ft | 83 kts | 7° |
| 2026-04-28 20:07 | -32.07474 | -52.16356 | 536 ft | 83 kts | 4° |
| 2026-04-28 20:07 | -32.06689 | -52.16222 | 848 ft | 87 kts | 8° |
| 2026-04-28 20:07 | -32.06088 | -52.16084 | 1123 ft | 88 kts | 8° |
| 2026-04-28 20:08 | -32.05493 | -52.15932 | 1415 ft | 86 kts | 9° |
| 2026-04-28 20:08 | -32.04922 | -52.15787 | 1707 ft | 82 kts | 8° |
| 2026-04-28 20:08 | -32.04367 | -52.15639 | 1984 ft | 82 kts | 9° |
| 2026-04-28 20:08 | -32.03807 | -52.15482 | 2253 ft | 82 kts | 9° |
| 2026-04-28 20:09 | -32.03248 | -52.15328 | 2491 ft | 87 kts | 10° |
| 2026-04-28 20:09 | -32.02586 | -52.15133 | 2513 ft | 109 kts | 12° |
| 2026-04-28 20:09 | -32.01832 | -52.14912 | 2511 ft | 109 kts | 11° |
| 2026-04-28 20:09 | -32.01092 | -52.14703 | 2509 ft | 111 kts | 11° |
| 2026-04-28 20:10 | -32.00339 | -52.14491 | 2508 ft | 111 kts | 11° |
| 2026-04-28 20:10 | -31.99591 | -52.14282 | 2508 ft | 110 kts | 11° |
| 2026-04-28 20:10 | -31.98846 | -52.14071 | 2506 ft | 109 kts | 11° |
| 2026-04-28 20:10 | -31.98110 | -52.13865 | 2507 ft | 109 kts | 11° |
| 2026-04-28 20:11 | -31.97373 | -52.13657 | 2505 ft | 109 kts | 11° |
| 2026-04-28 20:11 | -31.96637 | -52.13449 | 2506 ft | 109 kts | 11° |
| 2026-04-28 20:11 | -31.95897 | -52.13241 | 2506 ft | 110 kts | 11° |
| 2026-04-28 20:11 | -31.95153 | -52.13031 | 2506 ft | 110 kts | 11° |
| 2026-04-28 20:12 | -31.94413 | -52.12823 | 2506 ft | 109 kts | 11° |
| 2026-04-28 20:12 | -31.93672 | -52.12614 | 2506 ft | 109 kts | 11° |
| 2026-04-28 20:12 | -31.92933 | -52.12406 | 2505 ft | 109 kts | 11° |
| 2026-04-28 20:12 | -31.92196 | -52.12199 | 2505 ft | 109 kts | 11° |
| 2026-04-28 20:13 | -31.91456 | -52.11990 | 2506 ft | 110 kts | 11° |
| 2026-04-28 20:13 | -31.90710 | -52.11780 | 2506 ft | 111 kts | 11° |
| 2026-04-28 20:13 | -31.89947 | -52.11566 | 2508 ft | 115 kts | 11° |
| 2026-04-28 20:13 | -31.89164 | -52.11344 | 2510 ft | 116 kts | 11° |
| 2026-04-28 20:14 | -31.88376 | -52.11123 | 2509 ft | 116 kts | 11° |
| 2026-04-28 20:14 | -31.87593 | -52.10903 | 2508 ft | 116 kts | 11° |
| 2026-04-28 20:14 | -31.86808 | -52.10682 | 2510 ft | 116 kts | 11° |
| 2026-04-28 20:14 | -31.86020 | -52.10461 | 2508 ft | 117 kts | 11° |
| 2026-04-28 20:15 | -31.85242 | -52.10243 | 2508 ft | 116 kts | 11° |
| 2026-04-28 20:15 | -31.84453 | -52.10020 | 2508 ft | 117 kts | 11° |
| 2026-04-28 20:15 | -31.83654 | -52.09797 | 2507 ft | 116 kts | 11° |
| 2026-04-28 20:15 | -31.82866 | -52.09575 | 2507 ft | 117 kts | 11° |
| 2026-04-28 20:16 | -31.82088 | -52.09357 | 2507 ft | 116 kts | 11° |
| 2026-04-28 20:16 | -31.81300 | -52.09135 | 2508 ft | 116 kts | 11° |
| 2026-04-28 20:16 | -31.80512 | -52.08914 | 2508 ft | 117 kts | 11° |
| 2026-04-28 20:16 | -31.79720 | -52.08692 | 2509 ft | 117 kts | 11° |
| 2026-04-28 20:17 | -31.78927 | -52.08468 | 2508 ft | 117 kts | 11° |
| 2026-04-28 20:17 | -31.78137 | -52.08248 | 2509 ft | 117 kts | 12° |
| 2026-04-28 20:17 | -31.77345 | -52.08024 | 2509 ft | 117 kts | 11° |
| 2026-04-28 20:17 | -31.76555 | -52.07803 | 2508 ft | 117 kts | 12° |
| 2026-04-28 20:18 | -31.75763 | -52.07582 | 2509 ft | 117 kts | 11° |
| 2026-04-28 20:18 | -31.75239 | -52.07434 | 2509 ft | 117 kts | 11° |
| 2026-04-28 20:18 | -31.74182 | -52.07138 | 2509 ft | 117 kts | 11° |
| 2026-04-28 20:18 | -31.73391 | -52.06915 | 2508 ft | 117 kts | 11° |
| 2026-04-28 20:19 | -31.72599 | -52.06693 | 2509 ft | 117 kts | 11° |
| 2026-04-28 20:19 | -31.71807 | -52.06471 | 2507 ft | 117 kts | 11° |
| 2026-04-28 20:19 | -31.71017 | -52.06251 | 2509 ft | 117 kts | 11° |
| 2026-04-28 20:19 | -31.70234 | -52.06030 | 2507 ft | 117 kts | 11° |
| 2026-04-28 20:20 | -31.69442 | -52.05809 | 2507 ft | 117 kts | 11° |
| 2026-04-28 20:20 | -31.68651 | -52.05588 | 2508 ft | 117 kts | 11° |
| 2026-04-28 20:20 | -31.67864 | -52.05367 | 2507 ft | 116 kts | 11° |
| 2026-04-28 20:20 | -31.67076 | -52.05147 | 2505 ft | 116 kts | 11° |
| 2026-04-28 20:21 | -31.66291 | -52.04927 | 2506 ft | 116 kts | 11° |
| 2026-04-28 20:21 | -31.65503 | -52.04707 | 2507 ft | 117 kts | 11° |
| 2026-04-28 20:21 | -31.64714 | -52.04486 | 2507 ft | 116 kts | 11° |
| 2026-04-28 20:21 | -31.63921 | -52.04264 | 2507 ft | 117 kts | 11° |
| 2026-04-28 20:22 | -31.63132 | -52.04043 | 2508 ft | 117 kts | 11° |
| 2026-04-28 20:22 | -31.62338 | -52.03821 | 2507 ft | 117 kts | 11° |
| 2026-04-28 20:22 | -31.61545 | -52.03599 | 2509 ft | 117 kts | 11° |
| 2026-04-28 20:22 | -31.60751 | -52.03377 | 2509 ft | 117 kts | 11° |
| 2026-04-28 20:23 | -31.59956 | -52.03155 | 2507 ft | 118 kts | 11° |
| 2026-04-28 20:23 | -31.59155 | -52.02930 | 2505 ft | 118 kts | 11° |
| 2026-04-28 20:23 | -31.58359 | -52.02709 | 2503 ft | 117 kts | 11° |
| 2026-04-28 20:23 | -31.57570 | -52.02488 | 2501 ft | 116 kts | 11° |
| 2026-04-28 20:24 | -31.56786 | -52.02270 | 2503 ft | 116 kts | 11° |
| 2026-04-28 20:24 | -31.56001 | -52.02049 | 2501 ft | 116 kts | 11° |
| 2026-04-28 20:24 | -31.55217 | -52.01832 | 2501 ft | 116 kts | 11° |
| 2026-04-28 20:24 | -31.54432 | -52.01612 | 2500 ft | 116 kts | 11° |
| 2026-04-28 20:25 | -31.53645 | -52.01392 | 2500 ft | 116 kts | 11° |
| 2026-04-28 20:25 | -31.52869 | -52.01176 | 2501 ft | 116 kts | 11° |
| 2026-04-28 20:25 | -31.52077 | -52.00955 | 2501 ft | 117 kts | 11° |
| 2026-04-28 20:25 | -31.51285 | -52.00733 | 2502 ft | 117 kts | 11° |
| 2026-04-28 20:26 | -31.50491 | -52.00512 | 2503 ft | 117 kts | 11° |
| 2026-04-28 20:26 | -31.49694 | -52.00289 | 2502 ft | 118 kts | 11° |
| 2026-04-28 20:26 | -31.48899 | -52.00068 | 2502 ft | 117 kts | 11° |
| 2026-04-28 20:26 | -31.48107 | -51.99848 | 2502 ft | 117 kts | 11° |
| 2026-04-28 20:27 | -31.47318 | -51.99627 | 2501 ft | 116 kts | 11° |
| 2026-04-28 20:27 | -31.46533 | -51.99408 | 2501 ft | 116 kts | 11° |
| 2026-04-28 20:27 | -31.45747 | -51.99189 | 2502 ft | 116 kts | 11° |
| 2026-04-28 20:27 | -31.44968 | -51.98972 | 2504 ft | 117 kts | 11° |
| 2026-04-28 20:28 | -31.44172 | -51.98750 | 2504 ft | 118 kts | 11° |
| 2026-04-28 20:28 | -31.43373 | -51.98528 | 2505 ft | 118 kts | 11° |
| 2026-04-28 20:28 | -31.42573 | -51.98305 | 2505 ft | 118 kts | 11° |
| 2026-04-28 20:28 | -31.41773 | -51.98083 | 2504 ft | 118 kts | 11° |
| 2026-04-28 20:29 | -31.40975 | -51.97861 | 2504 ft | 118 kts | 11° |
| 2026-04-28 20:29 | -31.40178 | -51.97638 | 2505 ft | 118 kts | 11° |
| 2026-04-28 20:29 | -31.39379 | -51.97417 | 2504 ft | 118 kts | 11° |
| 2026-04-28 20:29 | -31.38580 | -51.97194 | 2505 ft | 118 kts | 11° |
| 2026-04-28 20:30 | -31.37780 | -51.96972 | 2506 ft | 118 kts | 11° |
| 2026-04-28 20:30 | -31.36976 | -51.96747 | 2505 ft | 119 kts | 11° |
| 2026-04-28 20:30 | -31.36225 | -51.96344 | 2496 ft | 121 kts | 35° |
| 2026-04-28 20:30 | -31.35582 | -51.95733 | 2495 ft | 120 kts | 36° |
| 2026-04-28 20:31 | -31.34916 | -51.95141 | 2495 ft | 120 kts | 36° |
| 2026-04-28 20:31 | -31.34254 | -51.94554 | 2493 ft | 119 kts | 35° |
| 2026-04-28 20:31 | -31.33593 | -51.93974 | 2491 ft | 118 kts | 35° |
| 2026-04-28 20:31 | -31.32937 | -51.93397 | 2491 ft | 118 kts | 35° |
| 2026-04-28 20:32 | -31.32279 | -51.92822 | 2491 ft | 118 kts | 35° |
| 2026-04-28 20:32 | -31.31620 | -51.92245 | 2490 ft | 119 kts | 35° |
| 2026-04-28 20:32 | -31.30961 | -51.91668 | 2493 ft | 118 kts | 35° |
| 2026-04-28 20:32 | -31.30300 | -51.91090 | 2493 ft | 119 kts | 35° |
| 2026-04-28 20:33 | -31.29638 | -51.90513 | 2494 ft | 119 kts | 35° |
| 2026-04-28 20:33 | -31.28977 | -51.89933 | 2494 ft | 119 kts | 35° |
| 2026-04-28 20:33 | -31.28314 | -51.89354 | 2494 ft | 119 kts | 35° |
| 2026-04-28 20:33 | -31.27652 | -51.88776 | 2494 ft | 119 kts | 35° |
| 2026-04-28 20:34 | -31.26987 | -51.88195 | 2494 ft | 119 kts | 35° |
| 2026-04-28 20:34 | -31.26324 | -51.87616 | 2497 ft | 119 kts | 35° |
| 2026-04-28 20:34 | -31.25660 | -51.87035 | 2495 ft | 119 kts | 35° |
| 2026-04-28 20:34 | -31.24998 | -51.86458 | 2494 ft | 119 kts | 35° |
| 2026-04-28 20:35 | -31.24337 | -51.85881 | 2494 ft | 118 kts | 35° |
| 2026-04-28 20:35 | -31.23678 | -51.85306 | 2494 ft | 118 kts | 35° |
| 2026-04-28 20:35 | -31.23030 | -51.84740 | 2493 ft | 118 kts | 35° |
| 2026-04-28 20:35 | -31.22372 | -51.84166 | 2492 ft | 118 kts | 34° |
| 2026-04-28 20:36 | -31.21712 | -51.83591 | 2492 ft | 118 kts | 35° |
| 2026-04-28 20:36 | -31.21052 | -51.83015 | 2492 ft | 118 kts | 35° |
| 2026-04-28 20:36 | -31.20394 | -51.82440 | 2494 ft | 118 kts | 35° |
| 2026-04-28 20:36 | -31.19731 | -51.81862 | 2494 ft | 119 kts | 35° |
| 2026-04-28 20:37 | -31.19065 | -51.81282 | 2494 ft | 119 kts | 35° |
| 2026-04-28 20:37 | -31.18402 | -51.80704 | 2494 ft | 119 kts | 35° |
| 2026-04-28 20:37 | -31.17744 | -51.80130 | 2493 ft | 117 kts | 34° |
| 2026-04-28 20:37 | -31.17086 | -51.79557 | 2493 ft | 118 kts | 35° |
| 2026-04-28 20:38 | -31.16427 | -51.78983 | 2491 ft | 118 kts | 34° |
| 2026-04-28 20:38 | -31.15769 | -51.78411 | 2491 ft | 118 kts | 35° |
| 2026-04-28 20:38 | -31.15112 | -51.77839 | 2493 ft | 118 kts | 35° |
| 2026-04-28 20:38 | -31.14451 | -51.77263 | 2493 ft | 119 kts | 35° |
| 2026-04-28 20:39 | -31.13788 | -51.76685 | 2494 ft | 119 kts | 35° |
| 2026-04-28 20:39 | -31.13121 | -51.76106 | 2496 ft | 120 kts | 35° |
| 2026-04-28 20:39 | -31.12454 | -51.75525 | 2496 ft | 119 kts | 34° |
| 2026-04-28 20:39 | -31.11794 | -51.74951 | 2495 ft | 119 kts | 35° |
| 2026-04-28 20:40 | -31.11126 | -51.74369 | 2494 ft | 119 kts | 35° |
| 2026-04-28 20:40 | -31.10464 | -51.73793 | 2495 ft | 119 kts | 35° |
| 2026-04-28 20:40 | -31.09800 | -51.73217 | 2492 ft | 119 kts | 35° |
| 2026-04-28 20:40 | -31.09143 | -51.72645 | 2491 ft | 118 kts | 35° |
| 2026-04-28 20:41 | -31.08485 | -51.72074 | 2493 ft | 118 kts | 35° |
| 2026-04-28 20:41 | -31.07828 | -51.71501 | 2493 ft | 117 kts | 35° |
| 2026-04-28 20:41 | -31.07170 | -51.70930 | 2492 ft | 118 kts | 35° |
| 2026-04-28 20:41 | -31.06512 | -51.70359 | 2491 ft | 118 kts | 34° |
| 2026-04-28 20:42 | -31.05852 | -51.69785 | 2491 ft | 119 kts | 34° |
| 2026-04-28 20:42 | -31.05198 | -51.69218 | 2492 ft | 119 kts | 35° |
| 2026-04-28 20:42 | -31.04533 | -51.68640 | 2492 ft | 119 kts | 35° |
| 2026-04-28 20:42 | -31.03858 | -51.68055 | 2493 ft | 119 kts | 35° |
| 2026-04-28 20:43 | -31.03194 | -51.67477 | 2493 ft | 119 kts | 35° |
| 2026-04-28 20:43 | -31.02540 | -51.66910 | 2493 ft | 119 kts | 35° |
| 2026-04-28 20:43 | -31.01876 | -51.66335 | 2495 ft | 119 kts | 35° |
| 2026-04-28 20:43 | -31.01214 | -51.65759 | 2494 ft | 118 kts | 35° |
| 2026-04-28 20:44 | -31.00553 | -51.65185 | 2493 ft | 119 kts | 35° |
| 2026-04-28 20:44 | -30.99891 | -51.64612 | 2493 ft | 118 kts | 35° |
| 2026-04-28 20:44 | -30.99229 | -51.64038 | 2493 ft | 118 kts | 34° |
| 2026-04-28 20:44 | -30.98567 | -51.63464 | 2493 ft | 119 kts | 35° |
| 2026-04-28 20:45 | -30.97902 | -51.62888 | 2493 ft | 119 kts | 34° |
| 2026-04-28 20:45 | -30.97239 | -51.62313 | 2492 ft | 118 kts | 34° |
| 2026-04-28 20:45 | -30.96575 | -51.61738 | 2494 ft | 119 kts | 35° |
| 2026-04-28 20:45 | -30.95912 | -51.61163 | 2495 ft | 119 kts | 34° |
| 2026-04-28 20:46 | -30.95247 | -51.60587 | 2494 ft | 119 kts | 35° |
| 2026-04-28 20:46 | -30.94582 | -51.60011 | 2493 ft | 119 kts | 35° |
| 2026-04-28 20:46 | -30.93918 | -51.59435 | 2492 ft | 118 kts | 35° |
| 2026-04-28 20:46 | -30.93257 | -51.58864 | 2491 ft | 118 kts | 35° |
| 2026-04-28 20:47 | -30.92597 | -51.58293 | 2493 ft | 118 kts | 35° |
| 2026-04-28 20:47 | -30.91934 | -51.57720 | 2493 ft | 118 kts | 34° |
| 2026-04-28 20:47 | -30.91276 | -51.57150 | 2490 ft | 118 kts | 35° |
| 2026-04-28 20:47 | -30.90620 | -51.56581 | 2494 ft | 117 kts | 34° |
| 2026-04-28 20:48 | -30.89962 | -51.56012 | 2495 ft | 118 kts | 34° |
| 2026-04-28 20:48 | -30.89302 | -51.55441 | 2495 ft | 118 kts | 34° |
| 2026-04-28 20:48 | -30.88647 | -51.54875 | 2498 ft | 119 kts | 34° |
| 2026-04-28 20:48 | -30.87979 | -51.54298 | 2496 ft | 119 kts | 35° |
| 2026-04-28 20:49 | -30.87309 | -51.53720 | 2497 ft | 120 kts | 35° |
| 2026-04-28 20:49 | -30.86641 | -51.53142 | 2498 ft | 120 kts | 34° |
| 2026-04-28 20:49 | -30.85971 | -51.52563 | 2498 ft | 120 kts | 35° |
| 2026-04-28 20:49 | -30.85304 | -51.51986 | 2498 ft | 119 kts | 35° |
| 2026-04-28 20:50 | -30.84638 | -51.51411 | 2498 ft | 119 kts | 34° |
| 2026-04-28 20:50 | -30.83971 | -51.50835 | 2497 ft | 119 kts | 35° |
| 2026-04-28 20:50 | -30.83307 | -51.50263 | 2496 ft | 118 kts | 35° |
| 2026-04-28 20:50 | -30.82647 | -51.49692 | 2494 ft | 118 kts | 35° |
| 2026-04-28 20:51 | -30.81988 | -51.49124 | 2494 ft | 118 kts | 35° |
| 2026-04-28 20:51 | -30.81550 | -51.48746 | 2494 ft | 118 kts | 35° |
| 2026-04-28 20:51 | -30.80663 | -51.47979 | 2496 ft | 119 kts | 35° |
| 2026-04-28 20:51 | -30.80219 | -51.47597 | 2495 ft | 120 kts | 35° |
| 2026-04-28 20:52 | -30.79323 | -51.46824 | 2497 ft | 121 kts | 34° |
| 2026-04-28 20:52 | -30.78642 | -51.46237 | 2498 ft | 122 kts | 35° |
| 2026-04-28 20:52 | -30.78188 | -51.45845 | 2500 ft | 123 kts | 35° |
| 2026-04-28 20:52 | -30.77501 | -51.45252 | 2501 ft | 123 kts | 35° |
| 2026-04-28 20:53 | -30.76124 | -51.44066 | 2503 ft | 123 kts | 35° |
| 2026-04-28 20:53 | -30.75435 | -51.43473 | 2503 ft | 123 kts | 34° |
| 2026-04-28 20:53 | -30.74745 | -51.42878 | 2504 ft | 124 kts | 34° |
| 2026-04-28 20:54 | -30.74054 | -51.42283 | 2505 ft | 124 kts | 35° |
| 2026-04-28 20:54 | -30.73362 | -51.41686 | 2504 ft | 124 kts | 35° |
| 2026-04-28 20:54 | -30.72670 | -51.41090 | 2504 ft | 124 kts | 34° |
| 2026-04-28 20:54 | -30.71977 | -51.40494 | 2503 ft | 124 kts | 34° |
| 2026-04-28 20:55 | -30.71283 | -51.39897 | 2504 ft | 124 kts | 35° |
| 2026-04-28 20:55 | -30.70591 | -51.39301 | 2504 ft | 123 kts | 34° |
| 2026-04-28 20:55 | -30.69901 | -51.38708 | 2502 ft | 123 kts | 35° |
| 2026-04-28 20:55 | -30.69214 | -51.38116 | 2503 ft | 123 kts | 35° |
| 2026-04-28 20:56 | -30.68524 | -51.37523 | 2502 ft | 123 kts | 35° |
| 2026-04-28 20:56 | -30.67837 | -51.36932 | 2502 ft | 123 kts | 35° |
| 2026-04-28 20:56 | -30.67159 | -51.36350 | 2502 ft | 123 kts | 35° |
| 2026-04-28 20:56 | -30.66472 | -51.35759 | 2503 ft | 123 kts | 34° |
| 2026-04-28 20:57 | -30.65783 | -51.35166 | 2504 ft | 124 kts | 34° |
| 2026-04-28 20:57 | -30.65087 | -51.34568 | 2504 ft | 124 kts | 35° |
| 2026-04-28 20:57 | -30.64394 | -51.33973 | 2505 ft | 124 kts | 34° |
| 2026-04-28 20:57 | -30.63698 | -51.33375 | 2504 ft | 124 kts | 35° |
| 2026-04-28 20:58 | -30.63001 | -51.32777 | 2506 ft | 125 kts | 35° |
| 2026-04-28 20:58 | -30.62304 | -51.32178 | 2505 ft | 124 kts | 34° |
| 2026-04-28 20:58 | -30.61610 | -51.31582 | 2505 ft | 123 kts | 35° |
| 2026-04-28 20:58 | -30.60919 | -51.30989 | 2504 ft | 123 kts | 35° |
| 2026-04-28 20:59 | -30.60231 | -51.30398 | 2502 ft | 123 kts | 34° |
| 2026-04-28 20:59 | -30.59542 | -51.29808 | 2501 ft | 123 kts | 35° |
| 2026-04-28 20:59 | -30.58858 | -51.29221 | 2503 ft | 122 kts | 35° |
| 2026-04-28 20:59 | -30.58172 | -51.28633 | 2502 ft | 122 kts | 35° |
| 2026-04-28 21:00 | -30.57487 | -51.28045 | 2501 ft | 123 kts | 34° |
| 2026-04-28 21:00 | -30.56800 | -51.27456 | 2503 ft | 124 kts | 35° |
| 2026-04-28 21:00 | -30.56107 | -51.26862 | 2503 ft | 124 kts | 34° |
| 2026-04-28 21:00 | -30.55414 | -51.26268 | 2503 ft | 124 kts | 34° |
| 2026-04-28 21:01 | -30.54721 | -51.25674 | 2502 ft | 124 kts | 35° |
| 2026-04-28 21:01 | -30.54038 | -51.25088 | 2502 ft | 124 kts | 35° |
| 2026-04-28 21:01 | -30.53345 | -51.24495 | 2502 ft | 124 kts | 35° |
| 2026-04-28 21:01 | -30.52654 | -51.23903 | 2503 ft | 123 kts | 34° |
| 2026-04-28 21:02 | -30.51965 | -51.23313 | 2500 ft | 123 kts | 34° |
| 2026-04-28 21:02 | -30.51277 | -51.22725 | 2502 ft | 123 kts | 35° |
| 2026-04-28 21:02 | -30.50590 | -51.22136 | 2503 ft | 123 kts | 34° |
| 2026-04-28 21:02 | -30.49900 | -51.21546 | 2502 ft | 123 kts | 34° |
| 2026-04-28 21:03 | -30.49209 | -51.20954 | 2503 ft | 123 kts | 34° |
| 2026-04-28 21:03 | -30.48517 | -51.20361 | 2503 ft | 124 kts | 34° |
| 2026-04-28 21:03 | -30.47822 | -51.19767 | 2503 ft | 124 kts | 35° |
| 2026-04-28 21:03 | -30.47128 | -51.19174 | 2502 ft | 124 kts | 34° |
| 2026-04-28 21:04 | -30.46436 | -51.18582 | 2502 ft | 123 kts | 34° |
| 2026-04-28 21:04 | -30.45758 | -51.18002 | 2502 ft | 123 kts | 34° |
| 2026-04-28 21:04 | -30.45069 | -51.17414 | 2501 ft | 123 kts | 35° |
| 2026-04-28 21:04 | -30.44381 | -51.16825 | 2501 ft | 123 kts | 35° |
| 2026-04-28 21:05 | -30.43695 | -51.16239 | 2499 ft | 123 kts | 34° |
| 2026-04-28 21:05 | -30.43010 | -51.15654 | 2501 ft | 122 kts | 35° |
| 2026-04-28 21:05 | -30.42323 | -51.15067 | 2501 ft | 123 kts | 35° |
| 2026-04-28 21:05 | -30.41631 | -51.14476 | 2501 ft | 124 kts | 35° |
| 2026-04-28 21:06 | -30.40939 | -51.13885 | 2503 ft | 124 kts | 34° |
| 2026-04-28 21:06 | -30.40245 | -51.13292 | 2502 ft | 124 kts | 34° |
| 2026-04-28 21:06 | -30.39550 | -51.12699 | 2503 ft | 124 kts | 34° |
| 2026-04-28 21:06 | -30.38853 | -51.12105 | 2501 ft | 124 kts | 34° |
| 2026-04-28 21:07 | -30.38066 | -51.11734 | 2489 ft | 122 kts | 5° |
| 2026-04-28 21:07 | -30.37247 | -51.11896 | 2490 ft | 119 kts | 337° |
| 2026-04-28 21:07 | -30.36470 | -51.12238 | 2493 ft | 118 kts | 339° |
| 2026-04-28 21:07 | -30.35713 | -51.12524 | 2491 ft | 111 kts | 340° |
| 2026-04-28 21:08 | -30.34991 | -51.12784 | 2491 ft | 106 kts | 341° |
| 2026-04-28 21:08 | -30.34294 | -51.13026 | 2490 ft | 103 kts | 340° |
| 2026-04-28 21:08 | -30.33617 | -51.13259 | 2476 ft | 102 kts | 341° |
| 2026-04-28 21:08 | -30.32917 | -51.13499 | 2399 ft | 105 kts | 341° |
| 2026-04-28 21:09 | -30.32231 | -51.13731 | 2393 ft | 103 kts | 341° |
| 2026-04-28 21:09 | -30.31546 | -51.13963 | 2376 ft | 102 kts | 341° |
| 2026-04-28 21:09 | -30.30859 | -51.14197 | 2329 ft | 104 kts | 341° |
| 2026-04-28 21:09 | -30.30163 | -51.14434 | 2281 ft | 105 kts | 341° |
| 2026-04-28 21:10 | -30.29457 | -51.14672 | 2214 ft | 107 kts | 341° |
| 2026-04-28 21:10 | -30.28739 | -51.14915 | 2091 ft | 106 kts | 341° |
| 2026-04-28 21:10 | -30.28040 | -51.15153 | 1965 ft | 104 kts | 341° |
| 2026-04-28 21:10 | -30.27331 | -51.15393 | 1737 ft | 106 kts | 341° |
| 2026-04-28 21:11 | -30.26652 | -51.15620 | 1478 ft | 94 kts | 341° |
| 2026-04-28 21:11 | -30.26055 | -51.15827 | 1213 ft | 85 kts | 341° |
| 2026-04-28 21:11 | -30.25490 | -51.16021 | 1000 ft | 82 kts | 340° |
| 2026-04-28 21:11 | -30.24974 | -51.16203 | 991 ft | 75 kts | 339° |
| 2026-04-28 21:12 | -30.24452 | -51.16383 | 993 ft | 82 kts | 341° |
| 2026-04-28 21:12 | -30.23897 | -51.16567 | 998 ft | 84 kts | 341° |
| 2026-04-28 21:12 | -30.23330 | -51.16756 | 1004 ft | 85 kts | 341° |
| 2026-04-28 21:12 | -30.22760 | -51.16947 | 1006 ft | 84 kts | 341° |
| 2026-04-28 21:13 | -30.22204 | -51.17136 | 1005 ft | 83 kts | 341° |
| 2026-04-28 21:13 | -30.21641 | -51.17168 | 1017 ft | 82 kts | 12° |
| 2026-04-28 21:13 | -30.21203 | -51.16764 | 1010 ft | 86 kts | 52° |
| 2026-04-28 21:13 | -30.20924 | -51.16152 | 1013 ft | 87 kts | 63° |
| 2026-04-28 21:14 | -30.20674 | -51.15510 | 1011 ft | 89 kts | 65° |
| 2026-04-28 21:14 | -30.20418 | -51.14853 | 1027 ft | 88 kts | 64° |
| 2026-04-28 21:14 | -30.20131 | -51.14219 | 1020 ft | 89 kts | 60° |
| 2026-04-28 21:14 | -30.19765 | -51.13652 | 1029 ft | 88 kts | 40° |
| 2026-04-28 21:15 | -30.19221 | -51.13455 | 972 ft | 81 kts | 351° |
| 2026-04-28 21:15 | -30.18708 | -51.13710 | 869 ft | 79 kts | 329° |
| 2026-04-28 21:15 | -30.18318 | -51.14136 | 684 ft | 77 kts | 297° |
| 2026-04-28 21:15 | -30.18190 | -51.14695 | 551 ft | 70 kts | 281° |
| 2026-04-28 21:16 | -30.18124 | -51.15248 | 474 ft | 71 kts | 270° |
| 2026-04-28 21:16 | -30.18265 | -51.15812 | 369 ft | 71 kts | 253° |
| 2026-04-28 21:16 | -30.18386 | -51.16367 | 288 ft | 72 kts | 259° |
| 2026-04-28 21:16 | -30.18521 | -51.16941 | 169 ft | 76 kts | 250° |
| 2026-04-28 21:17 | -30.18695 | -51.17511 | 57 ft | 75 kts | 253° |
| 2026-04-28 21:17 | -30.18841 | -51.18017 | 14 ft | 51 kts | 252° |
| 2026-04-28 21:17 | -30.18880 | -51.18195 | 17 ft | 10 kts | 322° |
| 2026-04-28 21:17 | -30.18858 | -51.18204 | 18 ft | 0 kts | 339° |
| 2026-04-28 21:18 | -30.18851 | -51.18207 | 18 ft | 6 kts | 340° |
| 2026-04-28 21:18 | -30.18821 | -51.18255 | 20 ft | 7 kts | 251° |
| 2026-04-28 21:18 | -30.18823 | -51.18290 | 20 ft | 8 kts | 79° |
| 2026-04-28 21:18 | -30.18807 | -51.18206 | 19 ft | 11 kts | 71° |
| 2026-04-28 21:19 | -30.18782 | -51.18128 | 18 ft | 6 kts | 69° |
| 2026-04-28 21:19 | -30.18770 | -51.18111 | 17 ft | 5 kts | 337° |
| 2026-04-28 21:19 | -30.18738 | -51.18128 | 18 ft | 0 kts | 17° |
| 2026-04-28 21:19 | -30.18724 | -51.18113 | 18 ft | 6 kts | 74° |
| 2026-04-28 21:20 | -30.18717 | -51.18086 | 19 ft | 9 kts | 72° |
| 2026-04-28 21:20 | -30.18713 | -51.18070 | 19 ft | 2 kts | 83° |
| 2026-04-28 21:20 | -30.18723 | -51.18038 | 18 ft | 4 kts | 134° |
| 2026-04-28 21:20 | -30.18737 | -51.18027 | 17 ft | 2 kts | 104° |
| 2026-04-28 21:21 | -30.18734 | -51.18018 | 17 ft | 0 kts | 65° |